Time;durP1;ratioP1;P1;durP2;ratioP2;P2;SDS_P1;SDS_P2;PMS_P1;PMS_P2;Temp;Humidity;BMP_temperature;BMP_pressure;BME280_temperature;BME280_humidity;BME280_pressure;Samples;Min_cycle;Max_cycle;Signal;HPM_P1;HPM_P2
2023/07/14 00:00:29;;;;;;;2.40;2.20;;;15.20;99.90;14.60;100333;;;;563330;251;24182;-82
2023/07/14 00:02:57;;;;;;;2.30;2.10;;;15.20;99.90;14.70;100343;;;;562894;251;24128;-82
2023/07/14 00:05:28;;;;;;;1.83;1.73;;;15.30;99.90;14.80;100343;;;;563074;251;24176;-81
2023/07/14 00:07:58;;;;;;;2.17;2.07;;;15.30;99.90;14.80;100342;;;;561710;251;24187;-82
2023/07/14 00:10:31;;;;;;;2.47;1.90;;;15.40;99.90;14.80;100342;;;;562720;251;24153;-81
2023/07/14 00:12:58;;;;;;;2.53;2.33;;;15.40;99.90;14.80;100343;;;;562760;251;24175;-83
2023/07/14 00:15:26;;;;;;;4.60;2.47;;;15.30;99.90;14.70;100346;;;;561585;251;24164;-83
2023/07/14 00:17:54;;;;;;;2.37;2.27;;;15.30;99.90;14.60;100338;;;;561735;251;24164;-82
2023/07/14 00:20:24;;;;;;;2.60;2.40;;;15.20;99.90;14.60;100338;;;;555234;253;24148;-82
2023/07/14 00:22:55;;;;;;;2.50;1.67;;;15.20;99.90;14.50;100347;;;;564670;249;24093;-81
2023/07/14 00:25:22;;;;;;;5.53;2.00;;;15.10;99.90;14.50;100346;;;;564762;250;24093;-79
2023/07/14 00:27:53;;;;;;;2.40;2.20;;;15.00;99.90;14.40;100346;;;;562235;251;24138;-81
2023/07/14 00:30:18;;;;;;;3.20;1.70;;;15.00;99.90;14.40;100346;;;;554046;255;24111;-80
2023/07/14 00:32:47;;;;;;;3.83;2.30;;;14.90;99.90;14.30;100351;;;;563289;254;24157;-80
2023/07/14 00:35:27;;;;;;;2.10;2.00;;;14.90;99.90;14.30;100341;;;;575714;245;24115;-80
2023/07/14 00:37:55;;;;;;;3.87;2.37;;;14.90;99.90;14.20;100343;;;;573429;246;24059;-80
2023/07/14 00:40:32;;;;;;;3.13;2.00;;;14.80;99.90;14.20;100355;;;;577338;246;24113;-80
2023/07/14 00:42:57;;;;;;;1.93;1.83;;;14.80;99.90;14.10;100360;;;;554962;251;24163;-79
2023/07/14 00:45:25;;;;;;;2.50;2.33;;;14.80;99.90;14.10;100355;;;;562713;251;24177;-80
2023/07/14 00:47:55;;;;;;;2.30;2.10;;;14.70;99.90;14.10;100349;;;;563204;250;24167;-81
2023/07/14 00:50:27;;;;;;;3.60;2.13;;;14.70;99.90;14.00;100342;;;;563864;251;24128;-80
2023/07/14 00:52:55;;;;;;;2.73;2.50;;;14.60;99.90;14.00;100354;;;;563573;251;24111;-80
2023/07/14 00:55:24;;;;;;;3.73;2.07;;;14.60;99.90;14.00;100351;;;;563402;251;24159;-80
2023/07/14 00:57:52;;;;;;;2.80;2.40;;;14.60;99.90;13.90;100351;;;;563102;251;24189;-80
2023/07/14 01:00:23;;;;;;;2.13;2.03;;;14.60;99.90;13.90;100353;;;;561869;251;24161;-81
2023/07/14 01:02:51;;;;;;;2.87;2.37;;;14.40;99.90;13.80;100354;;;;561633;251;24181;-80
2023/07/14 01:05:20;;;;;;;8.23;5.77;;;14.40;99.90;13.70;100354;;;;562065;251;24160;-79
2023/07/14 01:07:48;;;;;;;7.07;5.77;;;14.40;99.90;13.70;100355;;;;571706;247;24129;-80
2023/07/14 01:10:16;;;;;;;2.93;2.63;;;14.40;99.90;13.70;100352;;;;563558;251;24155;-80
2023/07/14 01:12:44;;;;;;;2.77;2.43;;;14.30;99.90;13.60;100355;;;;563102;251;24171;-79
2023/07/14 01:15:12;;;;;;;4.00;2.00;;;14.30;99.90;13.60;100358;;;;562611;251;24151;-81
2023/07/14 01:17:40;;;;;;;2.50;2.30;;;14.20;99.90;13.60;100364;;;;571343;251;24125;-81
2023/07/14 01:20:11;;;;;;;2.17;1.87;;;14.20;99.90;13.50;100367;;;;561562;251;24166;-80
2023/07/14 01:23:03;;;;;;;2.57;2.20;;;14.20;99.90;13.50;100375;;;;563718;251;24171;-82
2023/07/14 01:25:37;;;;;;;2.93;2.10;;;14.10;99.90;13.40;100370;;;;571419;247;24124;-84
2023/07/14 01:28:14;;;;;;;2.40;2.30;;;14.10;99.90;13.30;100374;;;;562893;247;24139;-81
2023/07/14 01:30:39;;;;;;;2.37;2.17;;;14.00;99.90;13.30;100377;;;;561373;251;24177;-81
2023/07/14 01:33:11;;;;;;;3.40;2.30;;;14.00;99.90;13.30;100368;;;;562973;247;24137;-81
2023/07/14 01:35:39;;;;;;;2.30;2.03;;;13.90;99.90;13.20;100372;;;;562689;251;24159;-80
2023/07/14 01:38:08;;;;;;;7.23;2.37;;;13.80;99.90;13.20;100373;;;;562810;251;24145;-82
2023/07/14 01:40:38;;;;;;;2.50;2.30;;;13.80;99.90;13.10;100373;;;;563052;251;24111;-80
2023/07/14 01:43:04;;;;;;;2.63;2.17;;;13.80;99.90;13.10;100375;;;;562551;251;24175;-82
2023/07/14 01:45:38;;;;;;;3.27;2.07;;;13.80;99.90;13.10;100379;;;;562473;251;24127;-81
2023/07/14 01:48:05;;;;;;;3.03;2.10;;;13.70;99.90;13.00;100380;;;;562451;251;24166;-82
2023/07/14 01:50:33;;;;;;;2.97;2.67;;;13.70;99.90;13.10;100384;;;;562372;251;24150;-83
2023/07/14 01:53:04;;;;;;;1.83;1.73;;;13.70;99.90;13.10;100389;;;;562687;251;24196;-84
2023/07/14 01:55:34;;;;;;;3.00;2.67;;;13.70;99.90;13.10;100385;;;;562641;251;24138;-80
2023/07/14 01:58:03;;;;;;;2.40;2.20;;;13.70;99.90;13.10;100383;;;;562857;251;24123;-84
2023/07/14 02:00:28;;;;;;;2.33;2.10;;;13.70;99.90;13.10;100389;;;;563662;251;24163;-82
2023/07/14 02:02:59;;;;;;;2.43;2.23;;;13.70;99.90;13.00;100392;;;;563807;251;24204;-81
2023/07/14 02:05:24;;;;;;;2.50;2.30;;;13.70;99.90;13.00;100397;;;;555848;252;24194;-81
2023/07/14 02:07:52;;;;;;;3.07;2.60;;;13.70;99.90;13.00;100395;;;;560260;251;24178;-82
2023/07/14 02:10:20;;;;;;;2.77;2.50;;;13.70;99.90;13.00;100404;;;;562871;251;24115;-82
2023/07/14 02:12:48;;;;;;;3.60;2.67;;;13.60;99.90;12.90;100408;;;;563194;251;24141;-83
2023/07/14 02:15:21;;;;;;;3.70;2.40;;;13.60;99.90;12.90;100409;;;;563130;251;24139;-80
2023/07/14 02:17:52;;;;;;;3.00;2.60;;;13.50;99.90;12.80;100412;;;;573644;249;24098;-82
2023/07/14 02:20:18;;;;;;;4.40;2.60;;;13.40;99.90;12.80;100416;;;;562124;251;24150;-83
2023/07/14 02:22:46;;;;;;;10.00;3.10;;;13.40;99.90;12.80;100413;;;;560770;251;24162;-82
2023/07/14 02:25:15;;;;;;;2.50;2.30;;;13.40;99.90;12.80;100413;;;;562420;251;24111;-84
2023/07/14 02:27:46;;;;;;;3.20;2.50;;;13.40;99.90;12.80;100417;;;;562583;251;24132;-83
2023/07/14 02:30:17;;;;;;;5.10;2.93;;;13.40;99.90;12.80;100421;;;;570937;247;24244;-83
2023/07/14 02:32:44;;;;;;;2.67;2.30;;;13.40;99.90;12.70;100416;;;;562208;251;24139;-82
2023/07/14 02:35:33;;;;;;;4.37;2.57;;;13.40;99.90;12.70;100428;;;;562789;251;24187;-82
2023/07/14 02:38:03;;;;;;;2.87;2.67;;;13.30;99.90;12.70;100428;;;;562520;247;24144;-80
2023/07/14 02:40:44;;;;;;;3.27;2.97;;;13.30;99.90;12.70;100438;;;;562566;251;24134;-83
2023/07/14 02:43:13;;;;;;;4.40;3.20;;;13.30;99.90;12.60;100428;;;;562952;251;24165;-81
2023/07/14 02:45:47;;;;;;;3.00;2.80;;;13.30;99.90;12.60;100431;;;;562688;251;24133;-83
2023/07/14 02:48:15;;;;;;;3.40;3.10;;;13.30;99.90;12.60;100424;;;;572884;244;24109;-83
2023/07/14 02:50:44;;;;;;;4.20;2.87;;;13.20;99.90;12.60;100428;;;;562109;251;24177;-82
2023/07/14 02:53:12;;;;;;;3.75;3.42;;;13.20;99.90;12.60;100431;;;;557538;251;46391;-82
2023/07/14 02:55:41;;;;;;;10.17;3.57;;;13.20;99.90;12.60;100428;;;;570691;247;24127;-81
2023/07/14 02:58:09;;;;;;;3.10;2.80;;;13.20;99.90;12.60;100425;;;;570758;251;24148;-83
2023/07/14 03:00:37;;;;;;;4.27;2.80;;;13.20;99.90;12.60;100427;;;;571219;251;24275;-84
2023/07/14 03:03:05;;;;;;;6.70;3.17;;;13.30;99.90;12.70;100429;;;;571228;247;24149;-83
2023/07/14 03:05:33;;;;;;;4.53;3.13;;;13.30;99.90;12.70;100426;;;;571224;251;24278;-85
2023/07/14 03:08:01;;;;;;;3.80;3.33;;;13.30;99.90;12.70;100427;;;;562363;251;24146;-83
2023/07/14 03:10:28;;;;;;;4.83;3.40;;;13.30;99.90;12.80;100425;;;;571234;246;24218;-84
2023/07/14 03:12:56;;;;;;;5.10;3.30;;;13.40;99.90;12.80;100431;;;;564099;251;24191;-83
2023/07/14 03:15:25;;;;;;;4.07;3.53;;;13.50;99.90;12.90;100432;;;;572234;250;24141;-83
2023/07/14 03:17:54;;;;;;;3.80;3.23;;;13.50;99.90;12.90;100432;;;;572013;248;24144;-83
2023/07/14 03:20:22;;;;;;;4.00;3.70;;;13.50;99.90;13.00;100441;;;;573971;249;24187;-82
2023/07/14 03:22:50;;;;;;;7.77;3.67;;;13.60;99.90;13.00;100438;;;;563600;251;24129;-82
2023/07/14 03:25:17;;;;;;;4.10;3.80;;;13.60;99.90;13.10;100435;;;;563201;251;24165;-80
2023/07/14 03:27:46;;;;;;;4.70;4.27;;;13.70;99.90;13.20;100435;;;;571259;251;24199;-82
2023/07/14 03:30:13;;;;;;;6.27;4.37;;;13.70;99.90;13.50;100439;;;;571740;251;24125;-84
2023/07/14 03:32:42;;;;;;;4.03;3.57;;;14.00;99.90;14.20;100433;;;;563097;251;24288;-82
2023/07/14 03:35:10;;;;;;;4.90;3.90;;;14.50;99.90;15.00;100444;;;;562921;251;24125;-81
2023/07/14 03:37:41;;;;;;;3.57;3.23;;;16.20;99.90;15.80;100440;;;;561990;251;24222;-82
2023/07/14 03:40:08;;;;;;;3.17;2.90;;;16.90;99.90;16.60;100449;;;;571462;251;24197;-81
2023/07/14 03:42:36;;;;;;;3.53;3.20;;;17.80;99.90;17.40;100445;;;;562802;251;24141;-81
2023/07/14 03:45:05;;;;;;;3.97;2.50;;;18.60;99.90;18.20;100448;;;;562988;251;27402;-82
2023/07/14 03:47:33;;;;;;;4.60;2.40;;;18.60;99.90;19.00;100440;;;;565462;249;24218;-83
2023/07/14 03:50:01;;;;;;;4.30;2.60;;;19.30;99.90;19.60;100444;;;;573347;249;24251;-84
2023/07/14 03:52:29;;;;;;;2.37;2.17;;;20.00;99.90;20.20;100436;;;;557564;251;35507;-82
2023/07/14 03:54:57;;;;;;;3.30;2.17;;;20.70;99.90;20.80;100436;;;;562453;251;24115;-81
2023/07/14 03:57:25;;;;;;;2.53;1.93;;;21.20;99.90;21.30;100438;;;;571278;251;23130;-82
2023/07/14 03:59:53;;;;;;;3.40;2.08;;;21.90;99.90;21.90;100438;;;;557999;251;35462;-82
2023/07/14 04:02:21;;;;;;;2.13;1.90;;;22.90;99.90;22.40;100434;;;;570954;247;23237;-82
2023/07/14 04:04:49;;;;;;;2.07;1.87;;;22.90;99.90;22.90;100448;;;;571406;251;24167;-83
2023/07/14 04:07:17;;;;;;;1.80;1.70;;;23.40;99.90;23.30;100447;;;;572328;251;24169;-81
2023/07/14 04:09:46;;;;;;;2.33;1.80;;;23.90;99.90;23.70;100457;;;;571820;251;23162;-82
2023/07/14 04:12:14;;;;;;;1.63;1.53;;;24.30;99.90;24.50;100450;;;;562822;251;24159;-80
2023/07/14 04:14:42;;;;;;;4.87;1.90;;;25.00;99.90;24.90;100448;;;;571446;251;23180;-79
2023/07/14 04:17:11;;;;;;;5.13;1.90;;;26.00;99.90;25.30;100446;;;;561761;251;23186;-80
2023/07/14 04:19:38;;;;;;;4.57;2.10;;;26.00;99.90;25.80;100452;;;;571484;251;23167;-79
2023/07/14 04:22:06;;;;;;;3.10;1.58;;;26.50;99.90;26.40;100449;;;;574079;249;23098;-79
2023/07/14 04:24:35;;;;;;;4.70;1.70;;;27.10;99.90;26.90;100462;;;;564465;251;23118;-81
2023/07/14 04:27:03;;;;;;;2.67;1.62;;;27.60;99.90;27.30;100462;;;;564244;251;23150;-83
2023/07/14 04:29:30;;;;;;;2.47;1.67;;;28.10;99.80;27.80;100468;;;;563769;251;23160;-83
2023/07/14 04:31:58;;;;;;;2.42;1.42;;;28.60;98.30;28.30;100462;;;;563942;251;23152;-81
2023/07/14 04:34:29;;;;;;;1.62;1.15;;;29.20;96.60;29.00;100469;;;;571887;251;23172;-82
2023/07/14 04:36:57;;;;;;;2.15;1.77;;;29.80;94.10;29.30;100472;;;;563282;251;23142;-83
2023/07/14 04:39:28;;;;;;;3.78;1.30;;;30.30;92.40;30.10;100472;;;;571920;251;24150;-83
2023/07/14 04:41:57;;;;;;;2.28;1.60;;;30.90;90.10;30.40;100476;;;;571548;247;23134;-84
2023/07/14 04:44:21;;;;;;;1.73;1.30;;;31.40;86.90;30.70;100477;;;;572641;244;23133;-78
2023/07/14 04:46:49;;;;;;;2.37;1.70;;;31.70;84.70;31.10;100486;;;;578214;244;23072;-79
2023/07/14 04:49:17;;;;;;;3.17;1.62;;;32.50;79.20;31.40;100492;;;;578294;244;23093;-78
2023/07/14 04:51:49;;;;;;;2.28;1.50;;;32.90;76.60;31.80;100495;;;;578134;244;24126;-79
2023/07/14 04:54:15;;;;;;;2.25;1.60;;;33.20;75.30;31.90;100500;;;;577772;244;24139;-78
2023/07/14 04:56:44;;;;;;;3.22;1.60;;;33.10;75.20;32.40;100502;;;;578204;244;23055;-78
2023/07/14 04:59:14;;;;;;;1.80;1.60;;;33.50;73.50;32.80;100505;;;;577919;244;23082;-78
2023/07/14 05:01:39;;;;;;;1.85;1.70;;;33.90;70.70;33.00;100506;;;;577741;244;23071;-80
2023/07/14 05:04:06;;;;;;;2.25;1.45;;;34.20;70.00;33.30;100507;;;;572292;247;23140;-78
2023/07/14 05:06:34;;;;;;;3.00;2.33;;;34.50;69.00;33.90;100509;;;;572167;247;35261;-77
2023/07/14 05:09:02;;;;;;;2.33;1.80;;;34.90;67.00;34.40;100505;;;;566289;251;23169;-78
2023/07/14 05:11:30;;;;;;;4.68;1.83;;;35.40;64.40;35.10;100509;;;;576796;246;23107;-78
2023/07/14 05:13:58;;;;;;;1.55;1.45;;;36.20;62.30;35.40;100510;;;;566330;251;24176;-79
2023/07/14 05:16:27;;;;;;;1.50;1.40;;;36.60;60.60;35.60;100506;;;;576950;247;23088;-79
2023/07/14 05:18:55;;;;;;;1.65;1.55;;;36.70;59.10;35.80;100513;;;;566360;251;23178;-79
2023/07/14 05:21:23;;;;;;;2.12;1.42;;;37.00;58.90;36.00;100516;;;;577106;247;23085;-79
2023/07/14 05:23:51;;;;;;;3.65;1.50;;;37.10;58.00;36.30;100518;;;;566126;251;23164;-79
2023/07/14 05:26:19;;;;;;;2.00;1.58;;;37.30;57.50;36.70;100524;;;;577053;247;23125;-79
2023/07/14 05:28:48;;;;;;;1.62;1.52;;;37.60;57.00;37.10;100527;;;;570651;251;23114;-79
2023/07/14 05:31:16;;;;;;;3.58;1.37;;;38.20;56.20;37.60;100527;;;;578838;244;24121;-79
2023/07/14 05:33:44;;;;;;;3.22;1.92;;;38.50;55.20;38.10;100530;;;;572691;245;23084;-79
2023/07/14 05:36:12;;;;;;;3.47;1.70;;;38.80;54.40;38.60;100532;;;;578883;246;23097;-79
2023/07/14 05:38:41;;;;;;;2.08;1.35;;;39.30;53.10;38.90;100529;;;;567519;251;23176;-79
2023/07/14 05:41:09;;;;;;;4.55;1.50;;;39.90;52.50;39.70;100528;;;;578264;246;23125;-79
2023/07/14 05:43:37;;;;;;;4.20;1.37;;;40.40;51.90;40.10;100536;;;;567315;251;23119;-79
2023/07/14 05:46:07;;;;;;;3.03;1.40;;;40.90;50.50;40.40;100538;;;;577993;246;23110;-79
2023/07/14 05:48:36;;;;;;;1.48;1.37;;;41.50;49.50;40.60;100537;;;;567189;251;23130;-79
2023/07/14 05:51:05;;;;;;;2.00;1.45;;;41.50;48.60;40.70;100533;;;;577920;246;23084;-80
2023/07/14 05:53:33;;;;;;;4.10;1.58;;;41.50;48.60;40.80;100533;;;;566761;251;23151;-80
2023/07/14 05:56:00;;;;;;;3.08;1.40;;;41.50;47.80;41.20;100536;;;;577364;247;23095;-80
2023/07/14 05:58:29;;;;;;;2.12;1.20;;;41.90;48.00;41.00;100546;;;;566489;251;23136;-79
2023/07/14 06:00:56;;;;;;;1.83;1.27;;;41.80;47.10;41.00;100545;;;;577762;247;23115;-79
2023/07/14 06:03:24;;;;;;;2.78;1.70;;;41.70;47.80;41.60;100550;;;;566532;251;23121;-78
2023/07/14 06:05:52;;;;;;;4.35;1.30;;;42.10;47.50;42.40;100551;;;;577373;247;23117;-80
2023/07/14 06:08:20;;;;;;;2.20;1.62;;;42.80;46.80;42.90;100550;;;;566517;251;23160;-79
2023/07/14 06:10:48;;;;;;;2.70;1.60;;;43.40;45.50;42.40;100565;;;;577107;247;23095;-79
2023/07/14 06:13:16;;;;;;;2.70;1.42;;;43.10;45.00;42.50;100556;;;;578343;244;24159;-79
2023/07/14 06:15:48;;;;;;;4.05;1.45;;;43.10;45.60;42.80;100555;;;;572218;247;23130;-78
2023/07/14 06:18:15;;;;;;;2.87;1.73;;;43.40;45.30;43.10;100563;;;;572311;247;24121;-79
2023/07/14 06:20:45;;;;;;;3.22;1.10;;;43.60;45.10;42.90;100562;;;;561655;251;23152;-79
2023/07/14 06:23:10;;;;;;;1.95;1.85;;;43.50;44.40;42.70;100557;;;;570462;247;23128;-79
2023/07/14 06:25:38;;;;;;;4.45;1.83;;;43.30;44.90;42.70;100554;;;;572234;247;23095;-79
2023/07/14 06:28:07;;;;;;;5.30;1.55;;;43.30;44.60;41.70;100554;;;;572284;247;23090;-77
2023/07/14 06:30:34;;;;;;;4.90;1.77;;;42.50;44.60;41.80;100557;;;;576913;246;23126;-78
2023/07/14 06:33:02;;;;;;;2.00;1.00;;;42.30;44.80;42.70;100557;;;;578774;244;23090;-77
2023/07/14 06:35:30;;;;;;;2.12;1.60;;;42.90;44.60;43.20;100560;;;;572726;246;23099;-77
2023/07/14 06:37:58;;;;;;;1.73;1.40;;;43.40;43.80;44.00;100560;;;;570894;247;23090;-77
2023/07/14 06:40:26;;;;;;;2.45;1.65;;;44.10;43.10;44.30;100567;;;;571059;251;23116;-79
2023/07/14 06:42:55;;;;;;;1.35;0.93;;;44.50;42.90;43.60;100567;;;;578781;244;23086;-79
2023/07/14 06:45:22;;;;;;;3.70;1.25;;;43.90;42.70;43.30;100571;;;;572733;244;23094;-79
2023/07/14 06:47:50;;;;;;;2.42;1.35;;;43.80;42.60;43.60;100569;;;;578869;246;23121;-78
2023/07/14 06:50:18;;;;;;;2.08;1.55;;;43.90;42.90;44.30;100576;;;;567540;251;24196;-79
2023/07/14 06:52:46;;;;;;;2.72;1.15;;;44.40;42.00;44.60;100568;;;;578228;246;23145;-79
2023/07/14 06:55:14;;;;;;;3.15;1.02;;;44.80;41.40;45.20;100571;;;;566971;251;23173;-79
2023/07/14 06:57:42;;;;;;;2.25;1.20;;;45.30;41.30;43.20;100576;;;;577532;246;23114;-79
2023/07/14 07:00:12;;;;;;;2.45;1.33;;;44.10;41.00;40.60;100577;;;;567081;251;23102;-79
2023/07/14 07:02:42;;;;;;;2.28;1.10;;;41.30;44.30;40.70;100577;;;;572776;246;23098;-79
2023/07/14 07:05:10;;;;;;;1.52;1.23;;;41.30;44.30;41.30;100583;;;;566672;251;23122;-79
2023/07/14 07:07:38;;;;;;;2.08;1.30;;;41.50;44.30;40.00;100588;;;;577285;247;23172;-78
2023/07/14 07:10:07;;;;;;;9.02;1.70;;;40.60;44.80;39.60;100579;;;;566568;251;23115;-79
2023/07/14 07:12:34;;;;;;;2.87;1.40;;;40.00;45.30;39.70;100577;;;;560192;251;23172;-79
2023/07/14 07:15:02;;;;;;;3.33;1.25;;;40.00;45.60;38.90;100579;;;;577300;247;24147;-77
2023/07/14 07:17:30;;;;;;;4.18;1.20;;;39.30;45.90;39.70;100578;;;;576421;244;23065;-78
2023/07/14 07:19:58;;;;;;;1.92;1.23;;;39.80;46.50;39.60;100583;;;;572540;247;24208;-78
2023/07/14 07:22:28;;;;;;;1.35;0.95;;;39.70;45.90;39.50;100574;;;;577239;247;23115;-78
2023/07/14 07:24:53;;;;;;;1.87;1.50;;;39.70;45.70;40.10;100586;;;;562074;251;23316;-78
2023/07/14 07:27:21;;;;;;;3.75;1.35;;;39.90;46.10;40.30;100582;;;;567239;247;35231;-79
2023/07/14 07:29:50;;;;;;;0.80;0.80;;;39.90;45.20;39.40;100581;;;;572437;247;23093;-78
2023/07/14 07:32:19;;;;;;;1.42;1.00;;;38.40;46.40;37.30;100573;;;;577061;247;23101;-79
2023/07/14 07:34:47;;;;;;;3.90;1.48;;;38.30;46.30;36.00;100580;;;;566665;251;23127;-78
2023/07/14 07:37:15;;;;;;;9.32;2.20;;;36.80;48.90;35.20;100582;;;;581435;247;24164;-79
2023/07/14 07:39:42;;;;;;;3.20;1.55;;;35.80;50.10;34.60;100581;;;;566577;251;23110;-79
2023/07/14 07:42:11;;;;;;;1.55;1.20;;;35.00;52.00;36.00;100572;;;;577522;247;23107;-78
2023/07/14 07:44:39;;;;;;;2.45;1.40;;;35.80;51.10;37.90;100579;;;;566658;251;23106;-79
2023/07/14 07:47:07;;;;;;;5.85;1.67;;;37.50;49.60;40.00;100574;;;;577371;247;23151;-78
2023/07/14 07:49:34;;;;;;;5.28;1.17;;;39.40;47.30;41.60;100565;;;;566618;251;23134;-80
2023/07/14 07:52:03;;;;;;;3.80;1.30;;;41.20;46.10;42.40;100578;;;;577377;247;23110;-79
2023/07/14 07:54:30;;;;;;;2.33;1.40;;;42.30;43.70;41.60;100587;;;;566519;251;23115;-79
2023/07/14 07:56:58;;;;;;;3.85;1.23;;;42.30;42.80;40.00;100586;;;;576926;244;23138;-79
2023/07/14 07:59:26;;;;;;;1.80;1.20;;;40.90;44.00;39.60;100572;;;;562690;251;35418;-79
2023/07/14 08:01:54;;;;;;;3.80;1.30;;;40.50;44.60;40.40;100583;;;;578079;246;23077;-79
2023/07/14 08:04:23;;;;;;;1.42;1.33;;;41.70;43.00;42.00;100579;;;;566752;251;23142;-79
2023/07/14 08:06:51;;;;;;;1.42;0.95;;;41.70;42.90;43.20;100587;;;;577953;246;23113;-79
2023/07/14 08:09:19;;;;;;;3.75;1.40;;;43.10;42.10;44.00;100586;;;;567105;251;23180;-80
2023/07/14 08:11:47;;;;;;;3.33;1.08;;;44.10;41.10;42.90;100582;;;;571459;246;23143;-79
2023/07/14 08:14:15;;;;;;;2.05;1.12;;;43.60;40.30;42.80;100575;;;;571516;248;23124;-80
2023/07/14 08:16:43;;;;;;;2.33;1.15;;;43.40;41.00;41.80;100587;;;;581694;242;24126;-79
2023/07/14 08:19:11;;;;;;;3.20;1.30;;;42.60;41.30;42.10;100588;;;;577562;246;23122;-78
2023/07/14 08:21:39;;;;;;;4.50;1.25;;;42.60;42.00;41.50;100596;;;;566869;251;23160;-79
2023/07/14 08:24:09;;;;;;;1.00;0.90;;;42.10;42.00;40.20;100604;;;;577704;247;23347;-79
2023/07/14 08:26:34;;;;;;;2.50;1.20;;;41.10;42.70;40.00;100601;;;;573366;247;23165;-79
2023/07/14 08:29:03;;;;;;;3.70;1.37;;;40.50;44.00;40.90;100600;;;;570826;247;23113;-79
2023/07/14 08:31:33;;;;;;;6.37;1.37;;;41.00;43.40;42.10;100595;;;;562249;251;23169;-79
2023/07/14 08:33:59;;;;;;;7.68;1.73;;;42.30;41.50;42.00;100603;;;;571840;247;23089;-80
2023/07/14 08:36:28;;;;;;;2.85;1.20;;;41.60;42.40;40.90;100607;;;;577457;247;23141;-79
2023/07/14 08:38:56;;;;;;;7.40;1.62;;;41.40;42.40;41.00;100606;;;;566417;251;26391;-79
2023/07/14 08:41:33;;;;;;;2.87;1.30;;;41.40;42.40;42.00;100606;;;;577396;247;23124;-80
2023/07/14 08:44:01;;;;;;;2.50;1.30;;;42.00;42.70;43.70;100609;;;;587691;240;23118;-78
2023/07/14 08:47:06;;;;;;;2.10;0.95;;;43.50;41.00;44.80;100600;;;;577582;244;23124;-79
2023/07/14 08:49:45;;;;;;;2.12;0.95;;;44.60;39.70;46.10;100590;;;;578364;244;23138;-80
2023/07/14 08:52:28;;;;;;;8.52;1.30;;;46.10;39.10;47.40;100588;;;;578938;244;23138;-78
2023/07/14 08:55:04;;;;;;;4.50;1.27;;;47.40;37.50;48.10;100581;;;;578216;244;23059;-78
2023/07/14 08:57:32;;;;;;;11.23;1.52;;;48.40;36.30;48.00;100582;;;;572359;247;23175;-78
2023/07/14 09:00:00;;;;;;;3.17;1.75;;;48.60;35.60;48.10;100589;;;;571853;247;23136;-79
2023/07/14 09:02:41;;;;;;;2.55;1.40;;;48.70;35.50;47.10;100594;;;;580973;247;23120;-79
2023/07/14 09:05:17;;;;;;;4.78;1.23;;;48.10;35.20;47.30;100599;;;;571947;246;23158;-79
2023/07/14 09:07:45;;;;;;;1.98;1.23;;;48.00;36.20;48.20;100591;;;;561974;251;23119;-78
2023/07/14 09:10:13;;;;;;;2.35;1.12;;;48.60;34.90;48.40;100593;;;;578557;246;23083;-79
2023/07/14 09:12:43;;;;;;;4.97;1.35;;;49.00;34.90;48.80;100603;;;;579652;244;23172;-79
2023/07/14 09:15:19;;;;;;;2.58;1.45;;;49.40;34.70;48.60;100595;;;;573396;246;23097;-78
2023/07/14 09:18:03;;;;;;;5.03;1.42;;;49.40;34.30;47.50;100597;;;;573265;246;23096;-79
2023/07/14 09:20:59;;;;;;;3.70;1.50;;;48.80;35.60;47.10;100600;;;;573739;246;23220;-79
2023/07/14 09:23:45;;;;;;;5.53;1.50;;;48.40;34.90;47.60;100599;;;;571438;247;23183;-79
2023/07/14 09:26:31;;;;;;;2.15;1.20;;;48.40;35.20;48.50;100594;;;;581356;246;24261;-78
2023/07/14 09:28:59;;;;;;;14.00;2.00;;;49.20;34.30;49.00;100597;;;;570625;247;23147;-78
2023/07/14 09:31:44;;;;;;;4.15;1.50;;;49.80;33.10;49.30;100597;;;;572469;247;23126;-80
2023/07/14 09:34:31;;;;;;;2.75;1.20;;;50.30;32.40;49.30;100590;;;;572645;247;24180;-79
2023/07/14 09:36:59;;;;;;;7.82;1.67;;;50.20;32.30;49.70;100592;;;;572413;247;24100;-79
2023/07/14 09:39:30;;;;;;;2.75;1.30;;;50.70;33.00;49.90;100592;;;;568098;251;23175;-79
2023/07/14 09:41:57;;;;;;;2.92;1.30;;;51.10;32.20;50.40;100592;;;;571100;247;23129;-80
2023/07/14 09:44:26;;;;;;;2.37;1.48;;;52.20;31.80;51.10;100588;;;;581657;247;23099;-80
2023/07/14 09:46:54;;;;;;;1.40;1.30;;;52.20;31.80;51.60;100576;;;;577426;247;23169;-80
2023/07/14 09:49:43;;;;;;;1.48;1.37;;;52.70;31.20;51.90;100577;;;;572760;247;23165;-79
2023/07/14 09:52:18;;;;;;;1.80;1.33;;;53.20;31.30;52.50;100576;;;;572681;247;23096;-80
2023/07/14 09:54:57;;;;;;;3.67;1.40;;;53.90;31.30;52.30;100571;;;;581444;243;23139;-80
2023/07/14 09:57:25;;;;;;;2.25;1.23;;;54.00;30.40;52.20;100564;;;;581290;247;24202;-80
2023/07/14 09:59:56;;;;;;;2.15;1.35;;;53.70;30.50;50.40;100567;;;;572264;247;23124;-81
2023/07/14 10:02:29;;;;;;;2.15;1.27;;;52.50;30.50;49.60;100571;;;;572253;247;23090;-80
2023/07/14 10:05:00;;;;;;;3.20;1.90;;;51.40;31.10;50.00;100569;;;;576836;246;23094;-79
2023/07/14 10:07:31;;;;;;;18.37;2.10;;;51.50;31.20;50.90;100571;;;;576557;244;23059;-80
2023/07/14 10:10:03;;;;;;;12.57;1.20;;;52.40;30.00;51.00;100568;;;;572595;247;24193;-80
2023/07/14 10:12:36;;;;;;;4.93;1.30;;;52.30;30.00;50.60;100568;;;;572086;247;23088;-80
2023/07/14 10:15:05;;;;;;;2.00;1.30;;;52.00;30.60;50.40;100565;;;;587803;240;23082;-79
2023/07/14 10:17:34;;;;;;;5.50;1.42;;;52.00;30.80;50.40;100567;;;;577728;244;23085;-80
2023/07/14 10:20:03;;;;;;;1.52;1.00;;;52.00;30.40;50.50;100564;;;;584535;242;23078;-80
2023/07/14 10:22:31;;;;;;;7.32;1.37;;;52.00;30.30;50.30;100571;;;;574094;245;23132;-80
2023/07/14 10:24:58;;;;;;;4.07;1.15;;;51.70;30.60;48.70;100564;;;;573677;246;23131;-80
2023/07/14 10:27:32;;;;;;;6.35;1.65;;;50.60;30.60;47.00;100564;;;;563534;251;23106;-79
2023/07/14 10:30:21;;;;;;;1.75;1.27;;;49.00;31.70;46.40;100561;;;;573448;246;23132;-80
2023/07/14 10:32:54;;;;;;;2.90;1.30;;;48.00;33.10;44.90;100562;;;;567352;246;46129;-81
2023/07/14 10:35:25;;;;;;;1.33;1.25;;;46.60;33.30;43.90;100555;;;;573065;246;23084;-80
2023/07/14 10:38:15;;;;;;;3.53;1.20;;;45.50;33.80;43.20;100559;;;;581739;246;23139;-80
2023/07/14 10:40:56;;;;;;;3.25;1.35;;;43.60;35.60;42.20;100558;;;;562871;251;23147;-77
2023/07/14 10:43:26;;;;;;;2.05;1.17;;;43.50;35.50;40.90;100557;;;;578350;244;24076;-79
2023/07/14 10:46:18;;;;;;;4.32;1.40;;;42.30;36.80;39.90;100553;;;;579037;244;24162;-79
2023/07/14 10:48:58;;;;;;;1.48;1.02;;;41.00;38.00;38.90;100558;;;;564664;250;24153;-79
2023/07/14 10:51:34;;;;;;;3.50;1.40;;;39.60;38.80;37.60;100557;;;;583936;244;23089;-79
2023/07/14 10:54:19;;;;;;;10.60;1.25;;;38.30;40.20;36.50;100548;;;;578728;244;23077;-79
2023/07/14 10:56:47;;;;;;;2.00;1.35;;;37.10;41.10;35.40;100555;;;;573355;245;23100;-79
2023/07/14 10:59:42;;;;;;;4.50;1.65;;;35.90;42.60;34.70;100565;;;;572793;247;23101;-79
2023/07/14 11:02:25;;;;;;;6.00;1.52;;;35.10;44.80;32.60;100566;;;;579028;242;24163;-78
2023/07/14 11:04:54;;;;;;;1.15;1.02;;;31.80;50.70;31.20;100564;;;;579312;244;23150;-79
2023/07/14 11:07:31;;;;;;;3.65;1.35;;;30.70;52.80;30.20;100568;;;;578171;244;24081;-78
2023/07/14 11:09:59;;;;;;;1.62;1.52;;;30.60;52.70;29.40;100572;;;;578607;244;23074;-78
2023/07/14 11:12:48;;;;;;;3.30;1.17;;;29.10;55.00;28.80;100571;;;;575380;244;23062;-77
2023/07/14 11:15:19;;;;;;;2.97;1.00;;;29.00;55.00;28.30;100563;;;;578879;244;23078;-78
2023/07/14 11:17:54;;;;;;;7.57;1.77;;;28.50;56.70;28.00;100562;;;;578013;244;23071;-79
2023/07/14 11:20:27;;;;;;;7.77;1.77;;;28.10;58.20;27.50;100557;;;;576205;244;23089;-78
2023/07/14 11:23:17;;;;;;;6.97;2.03;;;27.30;61.00;27.10;100557;;;;574137;244;24080;-78